Time;durP1;ratioP1;P1;durP2;ratioP2;P2;SDS_P1;SDS_P2;PMS_P1;PMS_P2;Temp;Humidity;BMP_temperature;BMP_pressure;BME280_temperature;BME280_humidity;BME280_pressure;Samples;Min_cycle;Max_cycle;Signal;HPM_P1;HPM_P2
2021/05/14 00:01:52;;;;;;;5.83;3.57;;;9.70;99.90;;;;;;4176919;28;20214;-75
2021/05/14 00:03:53;;;;;;;5.80;3.80;;;9.70;99.90;;;;;;4174696;28;20264;-75
2021/05/14 00:05:54;;;;;;;6.57;4.10;;;9.70;99.90;;;;;;4172635;28;20215;-75
2021/05/14 00:07:55;;;;;;;5.73;3.90;;;9.70;99.90;;;;;;4179004;28;20207;-75
2021/05/14 00:09:56;;;;;;;5.90;4.03;;;9.70;99.90;;;;;;4179176;28;20231;-75
2021/05/14 00:11:57;;;;;;;5.63;3.63;;;9.70;99.90;;;;;;4171370;28;20211;-75
2021/05/14 00:13:59;;;;;;;7.23;3.80;;;9.80;99.90;;;;;;4176267;28;20214;-74
2021/05/14 00:16:01;;;;;;;6.10;4.10;;;9.70;99.90;;;;;;4163984;28;20261;-75
2021/05/14 00:18:02;;;;;;;8.13;4.30;;;9.70;99.90;;;;;;4174389;28;20230;-75
2021/05/14 00:20:04;;;;;;;6.50;4.17;;;9.70;99.90;;;;;;4178666;28;20227;-75
2021/05/14 00:22:06;;;;;;;7.57;4.53;;;9.70;99.90;;;;;;4164641;28;20218;-75
2021/05/14 00:24:08;;;;;;;7.20;4.70;;;9.70;99.90;;;;;;4171065;28;20229;-75
2021/05/14 00:26:09;;;;;;;6.90;4.30;;;9.70;99.90;;;;;;4174955;28;20210;-75
2021/05/14 00:28:10;;;;;;;6.27;4.27;;;9.70;99.90;;;;;;4173461;28;20213;-75
2021/05/14 00:30:14;;;;;;;7.33;4.50;;;9.70;99.90;;;;;;4170089;28;20295;-75
2021/05/14 00:32:15;;;;;;;8.43;4.80;;;9.70;99.90;;;;;;4171182;28;20672;-75
2021/05/14 00:34:16;;;;;;;7.73;4.83;;;9.70;99.90;;;;;;4170682;28;20206;-75
2021/05/14 00:36:17;;;;;;;10.00;5.43;;;9.70;99.90;;;;;;4163623;28;20203;-75
2021/05/14 00:38:18;;;;;;;10.13;5.53;;;9.70;99.90;;;;;;4163203;28;20689;-75
2021/05/14 00:40:20;;;;;;;9.73;5.53;;;9.70;99.90;;;;;;4171158;28;20296;-75
2021/05/14 00:42:21;;;;;;;9.73;5.63;;;9.80;99.90;;;;;;4168566;28;20207;-75
2021/05/14 00:44:27;;;;;;;7.67;5.00;;;9.80;99.90;;;;;;4168462;28;20215;-76
2021/05/14 00:46:29;;;;;;;9.30;5.13;;;9.80;99.90;;;;;;4175910;28;20226;-76
2021/05/14 00:48:30;;;;;;;10.20;5.60;;;9.80;99.90;;;;;;4179247;28;20206;-78
2021/05/14 00:50:32;;;;;;;8.60;5.03;;;9.80;99.90;;;;;;4177767;28;20234;-76
2021/05/14 00:52:33;;;;;;;8.67;5.10;;;9.80;99.90;;;;;;4171010;28;20210;-76
2021/05/14 00:54:35;;;;;;;8.83;5.10;;;9.80;99.90;;;;;;4177640;28;20233;-76
2021/05/14 00:56:36;;;;;;;9.40;5.20;;;9.80;99.90;;;;;;4176948;28;20203;-76
2021/05/14 00:58:37;;;;;;;7.73;4.90;;;9.80;99.90;;;;;;4170472;28;20216;-75
2021/05/14 01:00:39;;;;;;;7.57;4.60;;;9.80;99.90;;;;;;4173566;28;20237;-76
2021/05/14 01:02:40;;;;;;;8.50;5.20;;;9.80;99.90;;;;;;4175356;28;20206;-76
2021/05/14 01:04:42;;;;;;;8.37;4.83;;;9.80;99.90;;;;;;4175303;28;20284;-76
2021/05/14 01:06:44;;;;;;;9.60;5.10;;;9.80;99.90;;;;;;4175350;28;20227;-76
2021/05/14 01:08:45;;;;;;;9.03;4.63;;;9.80;99.90;;;;;;4168243;28;20198;-76
2021/05/14 01:10:46;;;;;;;6.97;4.53;;;9.80;99.90;;;;;;4171380;28;20231;-76
2021/05/14 01:12:48;;;;;;;7.67;5.00;;;9.80;99.90;;;;;;4175763;28;20217;-75
2021/05/14 01:14:50;;;;;;;7.00;4.30;;;9.80;99.90;;;;;;4173534;28;20210;-76
2021/05/14 01:16:51;;;;;;;7.97;4.70;;;9.80;99.90;;;;;;4172308;28;20210;-75
2021/05/14 01:18:54;;;;;;;7.33;4.60;;;9.80;99.90;;;;;;4176361;28;20238;-75
2021/05/14 01:20:57;;;;;;;8.77;4.80;;;9.80;99.90;;;;;;4167723;28;20605;-76
2021/05/14 01:22:58;;;;;;;8.70;5.27;;;9.80;99.90;;;;;;4167551;28;20207;-76
2021/05/14 01:24:59;;;;;;;6.00;4.60;;;9.80;99.90;;;;;;4172996;28;20211;-76
2021/05/14 01:27:01;;;;;;;8.23;4.57;;;9.80;99.90;;;;;;4171936;28;20218;-75
2021/05/14 01:29:06;;;;;;;7.60;4.60;;;9.80;99.90;;;;;;4178580;28;20668;-76
2021/05/14 01:31:08;;;;;;;6.70;4.07;;;9.80;99.90;;;;;;4173472;28;20232;-76
2021/05/14 01:33:09;;;;;;;8.73;4.20;;;9.80;99.90;;;;;;4175134;28;20203;-76
2021/05/14 01:35:10;;;;;;;7.57;4.50;;;9.80;99.90;;;;;;4173077;28;20568;-76
2021/05/14 01:37:13;;;;;;;10.37;4.50;;;9.80;99.90;;;;;;4169983;28;20203;-76
2021/05/14 01:39:17;;;;;;;6.93;4.70;;;9.80;99.90;;;;;;4172271;28;20272;-76
2021/05/14 01:41:18;;;;;;;7.07;4.57;;;9.80;99.90;;;;;;4169363;28;20211;-76
2021/05/14 01:43:20;;;;;;;6.87;4.50;;;9.80;99.90;;;;;;4177514;28;20202;-76
2021/05/14 01:45:23;;;;;;;8.60;4.77;;;9.80;99.90;;;;;;4173880;28;20229;-75
2021/05/14 01:47:24;;;;;;;8.50;4.83;;;9.80;99.90;;;;;;4171974;28;20202;-76
2021/05/14 01:49:25;;;;;;;7.70;4.77;;;9.80;99.90;;;;;;4172239;28;20238;-76
2021/05/14 01:51:27;;;;;;;8.17;4.57;;;9.80;99.90;;;;;;4177100;28;20555;-75
2021/05/14 01:53:29;;;;;;;9.80;4.90;;;9.80;99.90;;;;;;4172031;28;20612;-76
2021/05/14 01:55:31;;;;;;;6.33;3.97;;;9.80;99.90;;;;;;4174712;28;20280;-76
2021/05/14 01:57:32;;;;;;;8.57;5.33;;;9.80;99.90;;;;;;4178982;28;20236;-76
2021/05/14 01:59:33;;;;;;;8.57;5.17;;;9.80;99.90;;;;;;4176018;28;20229;-76
2021/05/14 02:01:34;;;;;;;8.93;5.10;;;9.70;99.90;;;;;;4172065;28;20218;-75
2021/05/14 02:03:36;;;;;;;11.03;5.53;;;9.70;99.90;;;;;;4176568;28;20217;-75
2021/05/14 02:05:37;;;;;;;7.80;4.90;;;9.70;99.90;;;;;;4168905;28;20668;-75
2021/05/14 02:07:38;;;;;;;6.93;4.90;;;9.70;99.90;;;;;;4174602;28;20652;-76
2021/05/14 02:09:40;;;;;;;8.57;4.97;;;9.70;99.90;;;;;;4165238;28;20227;-75
2021/05/14 02:11:41;;;;;;;9.40;4.93;;;9.70;99.90;;;;;;4172611;28;20202;-75
2021/05/14 02:13:43;;;;;;;8.13;4.70;;;9.70;99.90;;;;;;4166117;28;20269;-76
2021/05/14 02:15:44;;;;;;;8.93;5.27;;;9.70;99.90;;;;;;4172281;28;22141;-76
2021/05/14 02:17:45;;;;;;;7.60;5.03;;;9.80;99.90;;;;;;4169330;28;20250;-76
2021/05/14 02:19:47;;;;;;;7.03;4.80;;;9.70;99.90;;;;;;4175062;28;20223;-76
2021/05/14 02:21:48;;;;;;;8.70;5.10;;;9.80;99.90;;;;;;4162339;28;20211;-75
2021/05/14 02:23:49;;;;;;;6.37;4.43;;;9.70;99.90;;;;;;4165317;28;20204;-76
2021/05/14 02:25:52;;;;;;;8.33;4.50;;;9.70;99.90;;;;;;4171003;28;20203;-76
2021/05/14 02:27:53;;;;;;;8.20;4.93;;;9.70;99.90;;;;;;4174935;28;20204;-76
2021/05/14 02:29:54;;;;;;;7.17;4.40;;;9.70;99.90;;;;;;4177354;28;20623;-76
2021/05/14 02:31:55;;;;;;;8.10;4.97;;;9.70;99.90;;;;;;4169633;28;21476;-76
2021/05/14 02:33:56;;;;;;;8.10;5.03;;;9.70;99.90;;;;;;4178134;28;20582;-76
2021/05/14 02:35:57;;;;;;;7.50;4.83;;;9.70;99.90;;;;;;4176279;28;20640;-75
2021/05/14 02:37:59;;;;;;;9.27;5.10;;;9.70;99.90;;;;;;4178734;28;20241;-76
2021/05/14 02:40:00;;;;;;;7.83;5.40;;;9.80;99.90;;;;;;4171396;28;20229;-76
2021/05/14 02:42:02;;;;;;;9.37;5.23;;;9.70;99.90;;;;;;4171696;28;20208;-76
2021/05/14 02:44:05;;;;;;;8.53;5.63;;;9.80;99.90;;;;;;4168742;28;20208;-76
2021/05/14 02:46:06;;;;;;;9.77;5.70;;;9.70;99.90;;;;;;4177392;28;20203;-76
2021/05/14 02:48:08;;;;;;;9.37;5.63;;;9.80;99.90;;;;;;4179240;28;20210;-76
2021/05/14 02:50:11;;;;;;;6.77;4.90;;;9.80;99.90;;;;;;4165872;28;20704;-76
2021/05/14 02:52:12;;;;;;;7.83;5.07;;;9.80;99.90;;;;;;4170183;28;20236;-75
2021/05/14 02:54:13;;;;;;;9.00;5.33;;;9.80;99.90;;;;;;4164149;28;20266;-76
2021/05/14 02:56:15;;;;;;;8.40;5.20;;;9.80;99.90;;;;;;4162373;28;20215;-75
2021/05/14 02:58:17;;;;;;;8.40;5.20;;;9.80;99.90;;;;;;4169149;28;20280;-75
2021/05/14 03:00:19;;;;;;;9.03;5.00;;;9.80;99.90;;;;;;4168457;28;20776;-76
2021/05/14 03:02:20;;;;;;;8.37;5.57;;;9.80;99.90;;;;;;4163822;28;20207;-76
2021/05/14 03:04:22;;;;;;;8.20;5.50;;;9.80;99.90;;;;;;4170707;28;20250;-76
2021/05/14 03:06:23;;;;;;;9.23;5.63;;;9.80;99.90;;;;;;4170256;28;20670;-76
2021/05/14 03:08:25;;;;;;;9.20;6.07;;;9.80;99.90;;;;;;4178254;28;20226;-76
2021/05/14 03:10:26;;;;;;;9.87;5.77;;;9.80;99.90;;;;;;4179945;28;20226;-76
2021/05/14 03:12:27;;;;;;;9.37;5.20;;;9.80;99.90;;;;;;4171778;28;20207;-76
2021/05/14 03:14:29;;;;;;;8.53;5.00;;;9.80;99.90;;;;;;4171052;28;20207;-75
2021/05/14 03:16:30;;;;;;;6.80;4.80;;;9.80;99.90;;;;;;4177181;28;20218;-75
2021/05/14 03:18:31;;;;;;;8.83;5.07;;;9.80;99.90;;;;;;4175465;28;20229;-75
2021/05/14 03:20:32;;;;;;;9.87;5.50;;;9.80;99.90;;;;;;4175586;28;20235;-76
2021/05/14 03:22:34;;;;;;;7.40;5.00;;;9.80;99.90;;;;;;4175975;28;20569;-76
2021/05/14 03:24:35;;;;;;;7.70;4.97;;;9.80;99.90;;;;;;4176143;28;20626;-75
2021/05/14 03:26:36;;;;;;;8.83;5.60;;;9.80;99.90;;;;;;4171937;28;20203;-76
2021/05/14 03:28:38;;;;;;;9.90;5.27;;;9.80;99.90;;;;;;4166450;28;20561;-76
2021/05/14 03:30:40;;;;;;;10.97;5.93;;;9.80;99.90;;;;;;4173498;28;20703;-76
2021/05/14 03:32:41;;;;;;;8.27;5.30;;;9.80;99.90;;;;;;4175990;28;20625;-76
2021/05/14 03:34:42;;;;;;;8.90;5.77;;;9.80;99.90;;;;;;4174208;28;20222;-75
2021/05/14 03:36:43;;;;;;;7.47;5.10;;;9.80;99.90;;;;;;4180132;28;20207;-75
2021/05/14 03:38:45;;;;;;;9.97;5.83;;;9.80;99.90;;;;;;4166111;28;20227;-75
2021/05/14 03:40:46;;;;;;;9.97;5.50;;;9.80;99.90;;;;;;4166572;28;20222;-76
2021/05/14 03:42:47;;;;;;;7.70;5.40;;;9.80;99.90;;;;;;4178563;28;20253;-76
2021/05/14 03:44:48;;;;;;;8.97;5.50;;;9.80;99.90;;;;;;4167943;28;20679;-75
2021/05/14 03:46:50;;;;;;;8.80;5.73;;;9.80;99.90;;;;;;4177897;28;20218;-76
2021/05/14 03:48:51;;;;;;;10.83;5.40;;;9.80;99.90;;;;;;4163911;28;20299;-76
2021/05/14 03:50:54;;;;;;;7.97;5.43;;;9.80;99.90;;;;;;4175028;28;20235;-75
2021/05/14 03:52:55;;;;;;;10.60;5.83;;;9.80;99.90;;;;;;4171343;28;20207;-75
2021/05/14 03:54:56;;;;;;;9.43;5.83;;;9.80;99.90;;;;;;4177460;28;20223;-76
2021/05/14 03:56:57;;;;;;;10.87;6.47;;;9.90;99.90;;;;;;4174725;28;20203;-76
2021/05/14 03:59:00;;;;;;;10.47;6.07;;;9.90;99.90;;;;;;4170490;28;20230;-75
2021/05/14 04:01:01;;;;;;;8.17;5.73;;;9.90;99.90;;;;;;4174882;28;20231;-76
2021/05/14 04:03:04;;;;;;;11.93;5.33;;;9.90;99.90;;;;;;4177194;28;20207;-76
2021/05/14 04:05:07;;;;;;;10.20;6.70;;;9.90;99.90;;;;;;4174294;28;20298;-75
2021/05/14 04:07:08;;;;;;;9.90;6.00;;;9.90;99.90;;;;;;4170703;28;20284;-75
2021/05/14 04:09:09;;;;;;;12.00;6.60;;;9.90;99.90;;;;;;4170215;28;20203;-76
2021/05/14 04:11:39;;;;;;;9.10;6.00;;;9.90;99.90;;;;;;4172946;28;20211;-76
2021/05/14 04:16:14;;;;;;;11.27;6.70;;;10.00;99.90;;;;;;4159479;28;20214;-75
2021/05/14 04:18:17;;;;;;;8.43;5.63;;;10.00;99.90;;;;;;4160238;28;20236;-76
2021/05/14 04:20:18;;;;;;;9.20;6.10;;;10.00;99.90;;;;;;4157901;28;20236;-77
2021/05/14 04:22:19;;;;;;;13.23;6.73;;;10.00;99.90;;;;;;4166611;28;20203;-76
2021/05/14 04:24:22;;;;;;;9.60;5.97;;;10.10;99.90;;;;;;4173373;28;20206;-76
2021/05/14 04:26:23;;;;;;;9.80;5.73;;;10.10;99.90;;;;;;4171209;28;20207;-75
2021/05/14 04:28:24;;;;;;;9.00;6.17;;;10.10;99.90;;;;;;4174574;28;20233;-75
2021/05/14 04:30:26;;;;;;;10.00;6.20;;;10.10;99.90;;;;;;4174889;28;20718;-76
2021/05/14 04:32:27;;;;;;;11.60;6.30;;;10.10;99.90;;;;;;4170187;28;20604;-76
2021/05/14 04:34:29;;;;;;;10.40;6.03;;;10.20;99.90;;;;;;4172162;28;20597;-75
2021/05/14 04:36:30;;;;;;;9.30;6.33;;;10.20;99.90;;;;;;4172317;28;20270;-75
2021/05/14 04:38:31;;;;;;;9.13;6.10;;;10.20;99.90;;;;;;4173070;28;20247;-76
2021/05/14 04:40:32;;;;;;;10.30;6.20;;;10.20;99.90;;;;;;4166068;28;20244;-75
2021/05/14 04:42:33;;;;;;;10.80;6.47;;;10.30;99.90;;;;;;4174846;28;20202;-76
2021/05/14 04:44:35;;;;;;;8.20;6.00;;;10.30;99.90;;;;;;4169731;28;20204;-75
2021/05/14 04:46:36;;;;;;;8.70;5.77;;;10.30;99.90;;;;;;4176516;28;20570;-75
2021/05/14 04:48:37;;;;;;;8.57;5.80;;;10.40;99.90;;;;;;4173905;28;20207;-75
2021/05/14 04:50:39;;;;;;;9.90;6.53;;;10.40;99.90;;;;;;4171779;28;20266;-75
2021/05/14 04:52:40;;;;;;;10.77;6.97;;;10.40;99.90;;;;;;4174230;28;20206;-75
2021/05/14 04:54:41;;;;;;;10.10;7.00;;;10.50;99.90;;;;;;4178978;28;20215;-76
2021/05/14 04:56:43;;;;;;;11.87;6.70;;;10.50;99.90;;;;;;4174631;28;20211;-76
2021/05/14 04:58:44;;;;;;;10.47;6.90;;;10.50;99.90;;;;;;4172551;28;20235;-76
2021/05/14 05:00:45;;;;;;;9.37;6.67;;;10.50;99.90;;;;;;4168405;28;20854;-76
2021/05/14 05:02:46;;;;;;;13.90;6.93;;;10.60;99.90;;;;;;4174357;28;20203;-75
2021/05/14 05:04:48;;;;;;;9.17;6.53;;;10.60;99.90;;;;;;4172660;28;20235;-77
2021/05/14 05:06:50;;;;;;;10.90;6.80;;;10.60;99.90;;;;;;4177324;28;20211;-76
2021/05/14 05:08:52;;;;;;;11.03;7.17;;;10.70;99.90;;;;;;4172682;28;20205;-76
2021/05/14 05:10:53;;;;;;;10.33;6.70;;;10.70;99.90;;;;;;4174762;28;20234;-76
2021/05/14 05:12:54;;;;;;;12.47;7.20;;;10.70;99.90;;;;;;4165489;28;20258;-77
2021/05/14 05:14:55;;;;;;;10.10;6.83;;;10.80;99.90;;;;;;4170282;28;20252;-76
2021/05/14 05:16:56;;;;;;;13.00;7.03;;;10.80;99.90;;;;;;4177699;28;20208;-76
2021/05/14 05:18:58;;;;;;;9.83;7.03;;;10.80;99.90;;;;;;4173899;28;20289;-75
2021/05/14 05:20:59;;;;;;;9.73;7.00;;;10.80;99.90;;;;;;4176854;28;20649;-75
2021/05/14 05:23:01;;;;;;;11.60;6.87;;;10.80;99.90;;;;;;4177830;28;20648;-77
2021/05/14 05:25:03;;;;;;;10.53;7.17;;;10.80;99.90;;;;;;4174155;28;20615;-76
2021/05/14 05:27:06;;;;;;;12.13;7.00;;;10.90;99.90;;;;;;4178802;28;20612;-76
2021/05/14 05:29:08;;;;;;;10.40;7.07;;;10.90;99.90;;;;;;4173792;28;20572;-75
2021/05/14 05:31:09;;;;;;;10.67;6.73;;;10.90;99.90;;;;;;4170504;28;20224;-76
2021/05/14 05:33:10;;;;;;;11.67;7.17;;;11.00;99.90;;;;;;4163749;28;20203;-75
2021/05/14 05:35:12;;;;;;;8.90;6.40;;;11.00;99.90;;;;;;4169838;28;20211;-75
2021/05/14 05:37:13;;;;;;;13.23;7.40;;;11.00;99.90;;;;;;4179127;28;20208;-76
2021/05/14 05:39:15;;;;;;;11.30;7.50;;;11.10;99.90;;;;;;4171675;28;20601;-75
2021/05/14 05:41:16;;;;;;;11.37;7.40;;;11.10;99.90;;;;;;4176961;28;20212;-75
2021/05/14 05:43:18;;;;;;;11.23;7.93;;;11.10;99.90;;;;;;4171131;28;20298;-76
2021/05/14 05:45:20;;;;;;;10.03;7.23;;;11.20;99.90;;;;;;4172369;28;20236;-75
2021/05/14 05:47:21;;;;;;;11.03;7.43;;;11.10;99.90;;;;;;4170357;28;20212;-77
2021/05/14 05:49:22;;;;;;;11.27;7.63;;;11.20;99.90;;;;;;4167906;28;20232;-75
2021/05/14 05:51:23;;;;;;;12.63;7.30;;;11.20;99.90;;;;;;4171332;28;20213;-75
2021/05/14 05:53:24;;;;;;;13.53;7.27;;;11.20;99.90;;;;;;4176975;28;20214;-75
2021/05/14 05:55:26;;;;;;;10.83;7.13;;;11.30;99.90;;;;;;4166850;28;20213;-75
2021/05/14 05:57:28;;;;;;;12.93;7.77;;;11.30;99.90;;;;;;4172420;28;20261;-75
2021/05/14 05:59:29;;;;;;;12.67;7.70;;;11.40;99.90;;;;;;4161892;28;20229;-75
2021/05/14 06:01:30;;;;;;;11.90;7.07;;;11.40;99.90;;;;;;4171422;28;20211;-75
2021/05/14 06:03:31;;;;;;;12.07;7.00;;;11.40;99.90;;;;;;4174435;28;20244;-77
2021/05/14 06:05:33;;;;;;;10.47;6.40;;;11.40;99.90;;;;;;4167853;28;20212;-76
2021/05/14 06:07:34;;;;;;;10.10;6.73;;;11.50;99.90;;;;;;4168846;28;20209;-77
2021/05/14 06:09:35;;;;;;;11.03;7.23;;;11.40;99.90;;;;;;4166774;28;20888;-77
2021/05/14 06:11:37;;;;;;;12.17;7.80;;;11.40;99.90;;;;;;4166195;28;20734;-76
2021/05/14 06:13:38;;;;;;;12.23;7.20;;;11.40;99.90;;;;;;4162417;28;20215;-75
2021/05/14 06:15:40;;;;;;;17.13;10.10;;;11.40;99.90;;;;;;4168222;28;20216;-76
2021/05/14 06:17:42;;;;;;;58.20;31.87;;;11.40;99.90;;;;;;4168227;28;20213;-76
2021/05/14 06:19:46;;;;;;;35.57;19.27;;;11.40;99.90;;;;;;4160925;28;20259;-76
2021/05/14 06:21:48;;;;;;;23.13;12.37;;;11.40;99.90;;;;;;4164289;28;20667;-76
2021/05/14 06:23:49;;;;;;;18.37;9.33;;;11.30;99.90;;;;;;4176360;28;20281;-76
2021/05/14 06:25:50;;;;;;;14.60;8.43;;;11.30;99.90;;;;;;4171835;28;20216;-76
2021/05/14 06:27:52;;;;;;;14.23;7.80;;;11.40;99.90;;;;;;4175662;28;20353;-76
2021/05/14 06:29:54;;;;;;;16.87;7.40;;;11.40;99.90;;;;;;4171573;28;20227;-76
2021/05/14 06:31:55;;;;;;;9.97;6.40;;;11.50;99.90;;;;;;4168563;28;20217;-76
2021/05/14 06:33:56;;;;;;;11.23;6.90;;;11.50;99.90;;;;;;4168733;28;20213;-76
2021/05/14 06:36:01;;;;;;;11.73;7.17;;;11.50;99.90;;;;;;4167965;28;20245;-78
2021/05/14 06:38:02;;;;;;;10.73;6.33;;;11.50;99.90;;;;;;4170290;28;20229;-77
2021/05/14 06:40:04;;;;;;;12.17;7.17;;;11.60;99.90;;;;;;4170718;28;20238;-76
2021/05/14 06:42:06;;;;;;;12.00;7.27;;;11.60;99.90;;;;;;4171444;28;20216;-76
2021/05/14 06:44:08;;;;;;;11.80;7.10;;;11.70;99.90;;;;;;4168878;28;20216;-75
2021/05/14 06:46:10;;;;;;;10.90;6.77;;;11.70;99.90;;;;;;4166009;28;20217;-75
2021/05/14 06:48:13;;;;;;;11.87;7.07;;;11.80;99.90;;;;;;4173525;28;20205;-75
2021/05/14 06:50:15;;;;;;;9.63;5.83;;;11.90;99.90;;;;;;4168685;28;20233;-75
2021/05/14 06:52:16;;;;;;;14.43;6.70;;;11.90;99.90;;;;;;4168773;28;20225;-75
2021/05/14 06:54:17;;;;;;;11.13;6.10;;;11.90;99.90;;;;;;4169468;28;20209;-75
2021/05/14 06:56:18;;;;;;;10.37;6.73;;;11.90;99.90;;;;;;4165872;28;20248;-75
2021/05/14 06:58:20;;;;;;;8.53;5.47;;;11.90;99.90;;;;;;4169063;28;20228;-75
2021/05/14 07:00:22;;;;;;;12.50;6.80;;;11.90;99.90;;;;;;4170763;28;20241;-75
2021/05/14 07:02:23;;;;;;;10.30;6.33;;;12.00;99.90;;;;;;4172279;28;20313;-75
2021/05/14 07:04:24;;;;;;;11.17;6.57;;;12.10;99.90;;;;;;4174449;28;20214;-75
2021/05/14 07:06:27;;;;;;;11.07;6.33;;;12.10;99.90;;;;;;4175233;28;20965;-75
2021/05/14 07:08:28;;;;;;;10.13;6.00;;;12.20;99.90;;;;;;4177359;28;20295;-75
2021/05/14 07:10:29;;;;;;;10.07;6.07;;;12.20;99.90;;;;;;4176782;28;20239;-75
2021/05/14 07:12:31;;;;;;;10.57;6.10;;;12.20;99.90;;;;;;4171970;28;20224;-75
2021/05/14 07:14:32;;;;;;;9.33;5.83;;;12.20;99.90;;;;;;4173494;28;20224;-75
2021/05/14 07:16:34;;;;;;;9.50;5.50;;;12.20;99.90;;;;;;4170200;28;20221;-75
2021/05/14 07:18:35;;;;;;;8.97;5.70;;;12.40;99.90;;;;;;4174474;28;20228;-75
2021/05/14 07:20:36;;;;;;;9.17;5.00;;;12.40;99.90;;;;;;4171225;28;20284;-75
2021/05/14 07:22:39;;;;;;;8.17;5.47;;;12.40;99.90;;;;;;4171638;28;20604;-75
2021/05/14 07:24:40;;;;;;;10.03;5.63;;;12.40;99.90;;;;;;4165166;28;20214;-75
2021/05/14 07:26:42;;;;;;;9.80;6.07;;;12.50;99.90;;;;;;4172056;28;20213;-75
2021/05/14 07:28:43;;;;;;;8.87;5.07;;;12.50;99.90;;;;;;4169649;28;20226;-75
2021/05/14 07:30:44;;;;;;;8.63;5.30;;;12.60;99.90;;;;;;4169603;28;20238;-75
2021/05/14 07:32:47;;;;;;;10.07;5.87;;;12.60;99.90;;;;;;4172045;28;20210;-75
2021/05/14 07:34:48;;;;;;;9.20;5.43;;;12.70;99.90;;;;;;4173576;28;20209;-75
2021/05/14 07:36:49;;;;;;;8.13;5.47;;;12.70;99.90;;;;;;4171329;28;20233;-76
2021/05/14 07:38:50;;;;;;;9.17;5.10;;;12.80;99.90;;;;;;4173399;28;20645;-76
2021/05/14 07:40:52;;;;;;;9.03;5.67;;;12.80;99.90;;;;;;4168101;28;20250;-76
2021/05/14 07:42:53;;;;;;;9.20;5.80;;;12.80;99.90;;;;;;4173695;28;20218;-76
2021/05/14 07:44:54;;;;;;;14.53;7.77;;;12.90;99.90;;;;;;4170815;28;20209;-75
2021/05/14 07:46:56;;;;;;;24.00;14.33;;;12.90;99.90;;;;;;4167270;28;20221;-79
2021/05/14 07:48:58;;;;;;;14.73;8.60;;;12.90;99.90;;;;;;4170362;28;20221;-76
2021/05/14 07:50:59;;;;;;;11.37;7.13;;;13.00;99.90;;;;;;4166023;28;20296;-76
2021/05/14 07:53:01;;;;;;;12.13;7.97;;;13.00;99.90;;;;;;4168160;28;20210;-76
2021/05/14 07:55:03;;;;;;;12.90;7.00;;;13.10;99.90;;;;;;4175760;28;20217;-76
2021/05/14 07:57:05;;;;;;;12.87;8.27;;;13.20;99.90;;;;;;4166927;28;20214;-76
2021/05/14 07:59:08;;;;;;;16.63;8.00;;;13.30;99.90;;;;;;4169676;28;20237;-76
2021/05/14 08:01:10;;;;;;;12.80;8.03;;;13.40;99.90;;;;;;4169785;28;20272;-76
2021/05/14 08:03:12;;;;;;;12.77;7.47;;;13.50;99.90;;;;;;4174058;28;20214;-76
2021/05/14 08:05:14;;;;;;;14.47;7.23;;;13.60;99.90;;;;;;4170625;28;20230;-76
2021/05/14 08:07:15;;;;;;;11.53;7.63;;;13.70;99.90;;;;;;4175060;28;20222;-76
2021/05/14 08:09:20;;;;;;;13.10;7.70;;;13.90;99.90;;;;;;4173551;28;20284;-76
2021/05/14 08:11:21;;;;;;;12.13;7.53;;;14.00;99.90;;;;;;4161205;28;20229;-76
2021/05/14 08:13:23;;;;;;;11.47;7.37;;;14.20;99.90;;;;;;4167019;28;20551;-77
2021/05/14 08:15:24;;;;;;;12.07;7.63;;;14.30;99.90;;;;;;4174749;28;20207;-76
2021/05/14 08:17:25;;;;;;;11.47;7.13;;;14.40;99.90;;;;;;4169638;28;20215;-76
2021/05/14 08:19:26;;;;;;;8.97;6.37;;;14.50;99.90;;;;;;4173061;28;20242;-76
2021/05/14 08:21:28;;;;;;;11.13;6.07;;;14.50;99.90;;;;;;4174048;28;20270;-76
2021/05/14 08:23:30;;;;;;;8.80;6.10;;;14.60;99.90;;;;;;4163119;28;20577;-77
2021/05/14 08:25:31;;;;;;;9.63;6.00;;;14.60;99.90;;;;;;4168420;28;20218;-77
2021/05/14 08:27:32;;;;;;;7.87;5.63;;;14.60;99.90;;;;;;4169714;28;20220;-76
2021/05/14 08:29:35;;;;;;;10.23;6.30;;;14.60;99.90;;;;;;4164870;28;20753;-76
2021/05/14 08:31:39;;;;;;;8.07;5.80;;;14.70;99.90;;;;;;4170640;28;20222;-76
2021/05/14 08:33:40;;;;;;;9.07;5.60;;;14.70;99.90;;;;;;4161348;28;20681;-76
2021/05/14 08:35:42;;;;;;;10.93;6.53;;;14.70;99.90;;;;;;4167188;28;20215;-77
2021/05/14 08:37:46;;;;;;;11.90;6.07;;;14.80;99.90;;;;;;4171226;28;20591;-76
2021/05/14 08:39:48;;;;;;;8.83;6.20;;;14.90;99.90;;;;;;4168193;28;20226;-76
2021/05/14 08:41:51;;;;;;;9.53;6.33;;;15.10;99.90;;;;;;4168974;28;20259;-76
2021/05/14 08:43:53;;;;;;;9.53;6.37;;;15.20;99.90;;;;;;4162609;28;20263;-76
2021/05/14 08:45:55;;;;;;;9.93;5.70;;;15.30;99.90;;;;;;4168210;28;20207;-76
2021/05/14 08:47:57;;;;;;;10.30;6.57;;;15.40;99.90;;;;;;4169958;28;20234;-77
2021/05/14 08:50:01;;;;;;;40.73;23.27;;;15.50;99.90;;;;;;4176911;28;20236;-79
2021/05/14 08:52:03;;;;;;;15.60;9.30;;;15.50;99.20;;;;;;4169538;28;20217;-77
2021/05/14 08:54:07;;;;;;;9.73;7.03;;;15.50;98.70;;;;;;4166309;28;20214;-76
2021/05/14 08:56:08;;;;;;;8.73;6.00;;;15.50;99.50;;;;;;4168048;28;20230;-76
2021/05/14 08:58:09;;;;;;;8.60;5.70;;;15.60;98.70;;;;;;4168864;28;20219;-76
2021/05/14 09:00:12;;;;;;;8.63;5.87;;;15.70;98.40;;;;;;4167399;28;20916;-75
2021/05/14 09:02:14;;;;;;;9.73;6.10;;;15.80;98.60;;;;;;4171615;28;20216;-77
2021/05/14 09:04:16;;;;;;;8.17;5.23;;;15.90;99.00;;;;;;4164895;28;20214;-77
2021/05/14 09:06:28;;;;;;;9.50;5.83;;;16.00;98.10;;;;;;4172448;28;20214;-76
2021/05/14 09:08:30;;;;;;;9.07;5.37;;;16.10;98.20;;;;;;4163980;28;20206;-76
2021/05/14 09:10:35;;;;;;;9.77;6.00;;;16.20;97.20;;;;;;4165702;28;20237;-76
2021/05/14 09:12:37;;;;;;;7.33;5.77;;;16.20;96.40;;;;;;4169216;28;20212;-76
2021/05/14 09:14:42;;;;;;;9.20;5.87;;;16.20;96.10;;;;;;4169475;28;21690;-76
2021/05/14 09:16:44;;;;;;;7.23;5.10;;;16.20;95.90;;;;;;4167438;28;20279;-76
2021/05/14 09:18:46;;;;;;;7.27;5.63;;;16.10;96.10;;;;;;4163282;28;20226;-75
2021/05/14 09:20:51;;;;;;;7.63;5.70;;;16.20;96.70;;;;;;4170967;28;20296;-76
2021/05/14 09:22:53;;;;;;;8.03;5.27;;;16.10;96.80;;;;;;4170280;28;20213;-76
2021/05/14 09:24:57;;;;;;;7.10;4.97;;;16.10;95.80;;;;;;4174233;28;20560;-77
2021/05/14 09:26:59;;;;;;;9.13;5.87;;;16.10;94.80;;;;;;4164424;28;20210;-76
2021/05/14 09:29:00;;;;;;;7.80;5.57;;;16.00;95.20;;;;;;4166329;28;20208;-77
2021/05/14 09:31:07;;;;;;;55.73;32.90;;;16.00;95.50;;;;;;4169352;28;20234;-76
2021/05/14 09:33:24;;;;;;;13.30;9.17;;;16.00;95.30;;;;;;4168464;28;20722;-77
2021/05/14 09:35:26;;;;;;;10.40;6.30;;;16.00;94.80;;;;;;4166325;28;20857;-77
2021/05/14 09:37:28;;;;;;;8.80;6.23;;;16.00;95.30;;;;;;4173591;28;20209;-77
2021/05/14 09:39:29;;;;;;;10.47;6.70;;;16.00;95.90;;;;;;4173281;28;20248;-77
2021/05/14 09:41:35;;;;;;;11.10;7.03;;;16.00;96.80;;;;;;4174705;28;20228;-79
2021/05/14 09:44:00;;;;;;;7.63;5.80;;;16.10;97.30;;;;;;4166985;28;20197;-78
2021/05/14 09:46:01;;;;;;;8.40;6.20;;;16.40;96.80;;;;;;4167376;28;20215;-78
2021/05/14 09:48:14;;;;;;;11.50;7.07;;;16.40;96.10;;;;;;4172508;28;20264;-78
2021/05/14 09:50:29;;;;;;;8.97;6.63;;;16.50;96.10;;;;;;4175186;28;20230;-77
2021/05/14 09:52:31;;;;;;;10.90;7.03;;;16.50;95.40;;;;;;4167890;28;20594;-77
2021/05/14 09:54:33;;;;;;;9.80;7.70;;;16.40;95.80;;;;;;4161135;28;20218;-77
2021/05/14 09:56:35;;;;;;;9.63;7.33;;;16.40;95.40;;;;;;4170640;28;20221;-77
2021/05/14 09:58:37;;;;;;;9.77;7.57;;;16.30;95.30;;;;;;4177776;28;20237;-77
2021/05/14 10:00:39;;;;;;;12.23;7.73;;;16.30;95.60;;;;;;4170069;28;20236;-77
2021/05/14 10:02:41;;;;;;;12.60;8.30;;;16.30;95.30;;;;;;4168904;28;20207;-78
2021/05/14 10:04:43;;;;;;;11.67;8.70;;;16.30;96.30;;;;;;4177862;28;20214;-78
2021/05/14 10:06:44;;;;;;;11.73;9.43;;;16.30;96.60;;;;;;4175096;28;20723;-78
2021/05/14 10:08:51;;;;;;;11.87;8.30;;;16.20;97.00;;;;;;4172382;28;20268;-78
2021/05/14 10:10:53;;;;;;;11.43;8.23;;;16.10;96.40;;;;;;4172816;28;20236;-76
2021/05/14 10:12:55;;;;;;;10.20;8.27;;;16.10;96.60;;;;;;4175841;28;20224;-77
2021/05/14 10:14:57;;;;;;;14.40;8.37;;;16.10;96.60;;;;;;4174164;28;20207;-77
2021/05/14 10:17:00;;;;;;;13.07;8.60;;;16.10;96.00;;;;;;4163117;28;20220;-76
2021/05/14 10:19:02;;;;;;;13.57;8.10;;;16.00;96.10;;;;;;4173388;28;20232;-76
2021/05/14 10:21:07;;;;;;;10.93;7.57;;;15.90;96.30;;;;;;4168215;28;20214;-77
2021/05/14 10:23:09;;;;;;;10.20;6.80;;;15.80;96.10;;;;;;4168327;28;20298;-77
2021/05/14 10:25:13;;;;;;;10.43;7.30;;;15.70;96.10;;;;;;4179387;28;20696;-75
2021/05/14 10:27:19;;;;;;;13.07;7.47;;;15.60;96.90;;;;;;4179679;28;20225;-76
2021/05/14 10:29:21;;;;;;;10.60;7.40;;;15.50;97.00;;;;;;4172747;28;20572;-77
2021/05/14 10:31:24;;;;;;;9.47;7.70;;;15.40;97.30;;;;;;4173208;28;20224;-75
2021/05/14 10:33:40;;;;;;;10.00;7.47;;;15.30;98.20;;;;;;4179817;28;20224;-76
2021/05/14 10:35:41;;;;;;;10.93;8.30;;;15.20;99.10;;;;;;4175313;28;20207;-78
2021/05/14 10:37:46;;;;;;;9.70;8.30;;;15.00;99.90;;;;;;4171831;28;20211;-76